Time;durP1;ratioP1;P1;durP2;ratioP2;P2;SDS_P1;SDS_P2;PMS_P1;PMS_P2;Temp;Humidity;BMP_temperature;BMP_pressure;BME280_temperature;BME280_humidity;BME280_pressure;Samples;Min_cycle;Max_cycle;Signal;HPM_P1;HPM_P2
2022/09/29 00:00:48;;;;;;;5.10;2.67;;;;;;;21.83;57.86;99280.38;5054800;28;20127;-80
2022/09/29 00:03:16;;;;;;;5.07;3.08;;;;;;;21.81;57.89;99277.03;5056382;28;20049;-80
2022/09/29 00:05:52;;;;;;;3.65;2.65;;;;;;;21.81;57.97;99271.66;5056408;28;20048;-80
2022/09/29 00:08:22;;;;;;;3.35;2.33;;;;;;;21.81;57.86;99274.34;5056471;28;20045;-80
2022/09/29 00:10:50;;;;;;;4.10;2.78;;;;;;;21.80;57.99;99273.50;5055846;28;20052;-80
2022/09/29 00:13:17;;;;;;;3.65;2.67;;;;;;;21.82;57.79;99278.69;5041977;28;20049;-80
2022/09/29 00:16:02;;;;;;;3.22;2.80;;;;;;;21.80;57.79;99276.19;5035095;28;20048;-81
2022/09/29 00:18:32;;;;;;;5.72;2.60;;;;;;;21.80;57.80;99272.69;5036117;28;20042;-81
2022/09/29 00:21:02;;;;;;;3.70;2.50;;;;;;;21.79;57.76;99279.91;5036142;28;20033;-80
2022/09/29 00:23:31;;;;;;;3.95;3.50;;;;;;;21.80;57.86;99283.44;5036005;28;20049;-80
2022/09/29 00:26:06;;;;;;;4.20;2.72;;;;;;;21.79;57.76;99271.81;5035769;28;20049;-81
2022/09/29 00:28:35;;;;;;;3.60;2.53;;;;;;;21.80;57.67;99278.91;5055436;28;20063;-80
2022/09/29 00:31:04;;;;;;;4.30;2.97;;;;;;;21.80;57.66;99296.91;5054893;28;20056;-81
2022/09/29 00:33:34;;;;;;;5.53;2.88;;;;;;;21.79;57.68;99303.31;5055381;28;20045;-80
2022/09/29 00:36:04;;;;;;;7.13;4.20;;;;;;;21.80;57.70;99313.09;5055694;28;20048;-80
2022/09/29 00:38:33;;;;;;;3.80;2.92;;;;;;;21.79;57.59;99314.09;5055599;28;20053;-81
2022/09/29 00:41:00;;;;;;;6.05;3.10;;;;;;;21.79;57.57;99306.84;5055421;28;20048;-81
2022/09/29 00:43:47;;;;;;;3.28;2.65;;;;;;;21.79;57.71;99306.84;5055626;28;20049;-81
2022/09/29 00:46:19;;;;;;;4.60;3.17;;;;;;;21.79;57.51;99311.38;5055867;28;20472;-81
2022/09/29 00:48:47;;;;;;;3.75;2.90;;;;;;;21.80;57.71;99292.38;5055409;28;20048;-81
2022/09/29 00:51:16;;;;;;;5.03;2.95;;;;;;;21.79;57.53;99300.63;5055732;28;20045;-81
2022/09/29 00:53:44;;;;;;;6.35;3.08;;;;;;;21.78;57.53;99297.09;5055505;28;20484;-80
2022/09/29 00:56:14;;;;;;;4.38;3.33;;;;;;;21.78;57.53;99297.09;5055163;28;20037;-80
2022/09/29 00:58:49;;;;;;;4.10;2.80;;;;;;;21.77;57.54;99292.72;5054941;28;20051;-80
2022/09/29 01:01:16;;;;;;;4.25;3.20;;;;;;;21.79;57.53;99308.69;5055631;28;20072;-81
2022/09/29 01:03:45;;;;;;;4.10;3.03;;;;;;;21.78;57.48;99305.16;5055505;28;20044;-81
2022/09/29 01:06:20;;;;;;;3.33;2.88;;;;;;;21.78;57.49;99307.03;5054806;28;20045;-80
2022/09/29 01:08:56;;;;;;;3.53;2.70;;;;;;;21.78;57.54;99312.41;5054762;28;20045;-80
2022/09/29 01:11:24;;;;;;;5.13;2.72;;;;;;;21.78;57.47;99304.34;5054901;28;20047;-79
2022/09/29 01:13:53;;;;;;;3.22;2.80;;;;;;;21.76;57.54;99293.75;5051214;28;20048;-79
2022/09/29 01:16:20;;;;;;;5.13;2.83;;;;;;;21.78;57.44;99304.34;5054481;28;20040;-78
2022/09/29 01:18:48;;;;;;;4.43;2.65;;;;;;;21.78;57.36;99297.09;5054489;28;20049;-80
2022/09/29 01:21:28;;;;;;;3.35;2.75;;;;;;;21.78;57.46;99304.34;5054717;28;20044;-79
2022/09/29 01:24:23;;;;;;;4.47;2.83;;;;;;;21.77;57.41;99295.41;5054956;28;20068;-79
2022/09/29 01:27:15;;;;;;;5.28;3.08;;;;;;;21.77;57.37;99302.66;5053090;28;20056;-79
2022/09/29 01:30:04;;;;;;;4.60;2.92;;;;;;;21.76;57.51;99295.63;5054526;28;20052;-79
2022/09/29 01:32:50;;;;;;;4.72;3.10;;;;;;;21.77;57.50;99305.38;5054372;28;20048;-79
2022/09/29 01:35:23;;;;;;;4.53;2.67;;;;;;;21.77;57.37;99299.97;5054597;28;20056;-79
2022/09/29 01:38:03;;;;;;;3.55;2.83;;;;;;;21.78;57.36;99304.34;5036210;28;20488;-79
2022/09/29 01:40:49;;;;;;;3.53;2.90;;;;;;;21.77;57.42;99313.44;5054659;28;20045;-79
2022/09/29 01:43:22;;;;;;;3.63;2.90;;;;;;;21.77;57.33;99302.66;5054359;28;20049;-79
2022/09/29 01:45:58;;;;;;;3.72;2.80;;;;;;;21.77;57.34;99308.06;5054933;28;20040;-79
2022/09/29 01:48:30;;;;;;;4.18;2.60;;;;;;;21.76;57.39;99309.91;5054434;28;20045;-80
2022/09/29 01:51:02;;;;;;;3.78;2.90;;;;;;;21.76;57.25;99311.78;5054381;28;20049;-79
2022/09/29 01:53:36;;;;;;;3.65;3.00;;;;;;;21.76;57.35;99309.09;5054742;28;20049;-79
2022/09/29 01:56:29;;;;;;;4.15;3.15;;;;;;;21.76;57.29;99312.63;5054067;28;20049;-79
2022/09/29 01:59:08;;;;;;;3.33;2.63;;;;;;;21.76;57.41;99303.69;5036974;28;20525;-79
2022/09/29 02:01:42;;;;;;;4.03;3.08;;;;;;;21.75;57.30;99289.38;5054136;28;20041;-79
2022/09/29 02:04:23;;;;;;;3.58;3.03;;;;;;;21.77;57.15;99297.28;5054388;28;20056;-78
2022/09/29 02:07:00;;;;;;;4.90;3.22;;;;;;;21.76;57.30;99301.00;5054074;28;20045;-78
2022/09/29 02:09:34;;;;;;;4.78;2.70;;;;;;;21.75;57.25;99300.13;5054285;28;20045;-79
2022/09/29 02:12:03;;;;;;;3.75;3.10;;;;;;;21.75;57.12;99304.69;5054252;28;20041;-79
2022/09/29 02:14:38;;;;;;;4.18;2.90;;;;;;;21.75;57.10;99302.84;5046543;28;20037;-79
2022/09/29 02:17:11;;;;;;;3.53;2.70;;;;;;;21.75;57.16;99299.31;5033253;28;20042;-79
2022/09/29 02:19:42;;;;;;;3.45;2.60;;;;;;;21.75;57.13;99289.38;5034002;28;20049;-78
2022/09/29 02:22:09;;;;;;;4.53;3.35;;;;;;;21.75;57.02;99286.69;5036306;28;20052;-79
2022/09/29 02:24:37;;;;;;;4.85;3.20;;;;;;;21.75;57.10;99297.44;5038677;28;20396;-80
2022/09/29 02:27:05;;;;;;;4.07;3.22;;;;;;;21.73;57.00;99284.19;5042402;28;20045;-80
2022/09/29 02:29:34;;;;;;;4.32;3.33;;;;;;;21.75;57.14;99302.00;5058489;28;20053;-80
2022/09/29 02:32:04;;;;;;;3.42;3.00;;;;;;;21.76;57.04;99306.41;5057724;28;20052;-80
2022/09/29 02:34:40;;;;;;;4.93;3.10;;;;;;;21.75;57.25;99291.22;5057819;28;20052;-79
2022/09/29 02:37:16;;;;;;;3.65;2.85;;;;;;;21.74;57.04;99287.69;5057892;28;20396;-79
2022/09/29 02:39:43;;;;;;;7.07;3.63;;;;;;;21.75;57.11;99293.91;5057269;28;20057;-79
2022/09/29 02:42:45;;;;;;;6.60;3.80;;;;;;;21.73;56.92;99300.34;5057799;28;20052;-79
2022/09/29 02:45:24;;;;;;;4.30;3.65;;;;;;;21.74;57.03;99290.41;5057953;28;20049;-79
2022/09/29 02:48:03;;;;;;;4.88;3.38;;;;;;;21.72;57.02;99287.91;5057218;28;20045;-80
2022/09/29 02:50:46;;;;;;;3.47;3.17;;;;;;;21.73;57.06;99281.47;5057072;28;20056;-79
2022/09/29 02:53:45;;;;;;;5.20;3.85;;;;;;;21.72;56.98;99290.59;5057562;28;20045;-79
2022/09/29 02:56:19;;;;;;;6.43;3.20;;;;;;;21.74;56.81;99287.69;5057065;28;20057;-80
2022/09/29 02:59:08;;;;;;;5.55;3.38;;;;;;;21.72;56.75;99285.22;5057969;28;20060;-80
2022/09/29 03:01:47;;;;;;;6.80;3.30;;;;;;;21.73;57.05;99284.19;5057494;28;20072;-80
2022/09/29 03:04:15;;;;;;;4.78;2.92;;;;;;;21.74;57.08;99306.56;5057308;28;20052;-80
2022/09/29 03:06:42;;;;;;;5.07;3.20;;;;;;;21.73;57.14;99292.25;5057176;28;20041;-80
2022/09/29 03:09:10;;;;;;;3.85;3.17;;;;;;;21.75;57.04;99289.38;5057240;28;20049;-80
2022/09/29 03:11:37;;;;;;;4.85;3.10;;;;;;;21.73;57.19;99286.03;5057014;28;20048;-80
2022/09/29 03:14:05;;;;;;;4.45;3.30;;;;;;;21.73;57.18;99284.19;5057619;28;20057;-80
2022/09/29 03:16:34;;;;;;;5.47;3.47;;;;;;;21.73;56.97;99273.41;5041200;28;20056;-80
2022/09/29 03:19:03;;;;;;;4.57;3.67;;;;;;;21.72;57.01;99274.44;5036826;28;20041;-80
2022/09/29 03:21:34;;;;;;;3.42;3.00;;;;;;;21.73;57.08;99277.97;5037483;28;20064;-80
2022/09/29 03:24:01;;;;;;;4.88;3.28;;;;;;;21.73;57.03;99268.00;5036352;28;20053;-80
2022/09/29 03:26:29;;;;;;;4.13;3.53;;;;;;;21.73;56.97;99265.31;5036396;28;20041;-80
2022/09/29 03:28:56;;;;;;;5.03;3.30;;;;;;;21.72;57.04;99273.59;5037038;28;20416;-80
2022/09/29 03:31:23;;;;;;;3.72;2.80;;;;;;;21.73;56.94;99281.47;5037237;28;20037;-80
2022/09/29 03:33:51;;;;;;;6.43;3.50;;;;;;;21.73;56.86;99281.47;5036441;28;20424;-80
2022/09/29 03:36:18;;;;;;;3.60;3.15;;;;;;;21.72;56.93;99276.28;5036684;28;20041;-80
2022/09/29 03:38:46;;;;;;;3.80;3.45;;;;;;;21.72;57.06;99279.81;5035536;28;20049;-80
2022/09/29 03:41:13;;;;;;;4.50;3.35;;;;;;;21.73;56.91;99269.88;5036948;28;20049;-80
2022/09/29 03:43:41;;;;;;;5.03;3.38;;;;;;;21.71;56.87;99262.00;5052278;28;20052;-79
2022/09/29 03:46:08;;;;;;;4.15;3.28;;;;;;;21.73;56.92;99259.09;5056560;28;20057;-80
2022/09/29 03:48:35;;;;;;;4.25;3.28;;;;;;;21.72;56.86;99260.97;5056277;28;20412;-79
2022/09/29 03:51:03;;;;;;;4.22;3.22;;;;;;;21.72;56.84;99257.44;5055005;28;20057;-79
2022/09/29 03:53:32;;;;;;;4.55;3.70;;;;;;;21.70;56.74;99260.31;5056568;28;20071;-79
2022/09/29 03:56:00;;;;;;;4.35;3.33;;;;;;;21.71;56.83;99259.31;5056180;28;20045;-79
2022/09/29 03:58:27;;;;;;;3.65;3.08;;;;;;;21.72;56.64;99271.75;5054878;28;20045;-78
2022/09/29 04:00:54;;;;;;;4.25;3.00;;;;;;;21.72;56.48;99270.91;5056266;28;20041;-79
2022/09/29 04:03:21;;;;;;;5.50;3.38;;;;;;;21.71;56.56;99278.16;5055856;28;20056;-80
2022/09/29 04:05:49;;;;;;;5.63;3.60;;;;;;;21.72;56.68;99270.91;5054740;28;20060;-81
2022/09/29 04:08:16;;;;;;;5.05;3.25;;;;;;;21.74;56.58;99287.69;5056075;28;20068;-80
2022/09/29 04:10:46;;;;;;;4.07;3.00;;;;;;;21.73;56.55;99286.03;5056309;28;20048;-80
2022/09/29 04:13:14;;;;;;;5.78;3.53;;;;;;;21.72;56.56;99295.16;5055708;28;20051;-79
2022/09/29 04:15:49;;;;;;;4.53;3.00;;;;;;;21.72;56.61;99295.16;5054820;28;20041;-79
2022/09/29 04:18:16;;;;;;;6.30;3.65;;;;;;;21.71;56.56;99291.63;5047428;28;20473;-79
2022/09/29 04:20:43;;;;;;;4.22;3.38;;;;;;;21.72;56.66;99281.69;5035789;28;20397;-78
2022/09/29 04:23:11;;;;;;;3.58;2.95;;;;;;;21.72;56.57;99285.22;5035080;28;20116;-79
2022/09/29 04:25:38;;;;;;;3.15;2.80;;;;;;;21.72;56.40;99295.16;5034413;28;20049;-81
2022/09/29 04:28:06;;;;;;;5.00;3.17;;;;;;;21.72;56.80;99298.66;5044190;28;20041;-80
2022/09/29 04:30:33;;;;;;;5.13;3.40;;;;;;;21.72;56.71;99289.75;5055413;28;20041;-81
2022/09/29 04:33:00;;;;;;;7.55;3.63;;;;;;;21.71;56.64;99294.31;5053842;28;20060;-80
2022/09/29 04:35:28;;;;;;;5.40;3.28;;;;;;;21.71;56.55;99282.69;5055329;28;20052;-80
2022/09/29 04:38:02;;;;;;;4.95;3.97;;;;;;;21.70;56.48;99281.84;5054960;28;20049;-81
2022/09/29 04:40:29;;;;;;;5.15;3.88;;;;;;;21.70;56.47;99267.53;5055149;28;20060;-80
2022/09/29 04:42:56;;;;;;;5.10;4.03;;;;;;;21.69;56.39;99280.19;5055113;28;20040;-80
2022/09/29 04:45:24;;;;;;;5.68;3.80;;;;;;;21.69;56.43;99277.50;5054354;28;20045;-81
2022/09/29 04:47:51;;;;;;;6.80;3.80;;;;;;;21.70;56.35;99278.31;5054872;28;20049;-81
2022/09/29 04:50:18;;;;;;;4.88;3.40;;;;;;;21.69;56.38;99284.72;5054979;28;20067;-80
2022/09/29 04:52:45;;;;;;;6.43;3.97;;;;;;;21.69;56.35;99284.72;5053716;28;20051;-80
2022/09/29 04:55:13;;;;;;;5.25;3.20;;;;;;;21.69;56.27;99282.88;5055160;28;20056;-81
2022/09/29 04:57:42;;;;;;;4.03;3.20;;;;;;;21.68;56.26;99283.91;5055443;28;20041;-81
2022/09/29 05:00:10;;;;;;;5.47;3.63;;;;;;;21.69;56.30;99279.34;5053642;28;20057;-80
2022/09/29 05:02:38;;;;;;;6.43;3.55;;;;;;;21.68;56.35;99289.28;5055098;28;20062;-81
2022/09/29 05:05:06;;;;;;;6.97;3.60;;;;;;;21.69;56.37;99290.13;5054624;28;20068;-81
2022/09/29 05:07:34;;;;;;;3.92;3.17;;;;;;;21.68;56.23;99286.59;5053399;28;20045;-81
2022/09/29 05:10:02;;;;;;;5.45;3.30;;;;;;;21.68;56.36;99283.06;5054793;28;20045;-81
2022/09/29 05:12:29;;;;;;;4.82;3.50;;;;;;;21.66;56.20;99280.53;5054682;28;20506;-81
2022/09/29 05:14:56;;;;;;;3.50;3.10;;;;;;;21.67;56.24;99286.75;5053517;28;20053;-80
2022/09/29 05:17:24;;;;;;;5.30;3.45;;;;;;;21.67;56.25;99290.31;5047383;28;20167;-80
2022/09/29 05:19:51;;;;;;;4.65;3.28;;;;;;;21.67;56.33;99284.06;5033943;28;20484;-80
2022/09/29 05:22:23;;;;;;;5.80;3.42;;;;;;;21.66;56.20;99296.69;5034452;28;20057;-80
2022/09/29 05:24:51;;;;;;;4.63;3.58;;;;;;;21.67;56.28;99297.53;5033288;28;20048;-80
2022/09/29 05:27:18;;;;;;;4.97;3.30;;;;;;;21.66;56.40;99296.69;5034659;28;20413;-80
2022/09/29 05:29:46;;;;;;;3.95;3.55;;;;;;;21.66;56.23;99303.94;5034019;28;20435;-80
2022/09/29 05:32:13;;;;;;;6.05;3.45;;;;;;;21.68;56.20;99307.31;5034458;28;20045;-81
2022/09/29 05:34:40;;;;;;;4.68;3.53;;;;;;;21.67;56.19;99302.91;5035225;28;20045;-80
2022/09/29 05:37:08;;;;;;;4.80;3.90;;;;;;;21.66;56.15;99310.16;5033665;28;20064;-80
2022/09/29 05:39:36;;;;;;;4.72;4.10;;;;;;;21.65;56.12;99303.13;5034401;28;20060;-80
2022/09/29 05:42:05;;;;;;;4.72;3.25;;;;;;;21.65;56.29;99311.19;5034507;28;20504;-81
2022/09/29 05:44:32;;;;;;;6.50;4.00;;;;;;;21.66;56.07;99312.88;5049857;28;20052;-81
2022/09/29 05:47:00;;;;;;;6.05;3.90;;;;;;;21.66;56.06;99301.25;5052899;28;20049;-81
2022/09/29 05:49:27;;;;;;;4.65;3.80;;;;;;;21.66;56.16;99314.72;5053208;28;20056;-81
2022/09/29 05:51:54;;;;;;;5.63;3.42;;;;;;;21.64;56.12;99309.53;5053788;28;20519;-81
2022/09/29 05:54:22;;;;;;;5.97;3.92;;;;;;;21.65;56.10;99316.59;5054219;28;20045;-81
2022/09/29 05:56:50;;;;;;;5.78;4.53;;;;;;;21.65;56.09;99318.44;5057756;28;20052;-81
2022/09/29 05:59:17;;;;;;;7.90;4.85;;;;;;;21.64;56.07;99323.00;5058002;28;20068;-81
2022/09/29 06:01:44;;;;;;;5.10;4.60;;;;;;;21.65;56.14;99327.34;5056905;28;20488;-81
2022/09/29 06:04:12;;;;;;;5.30;4.60;;;;;;;21.65;56.01;99307.66;5057053;28;20053;-82
2022/09/29 06:06:39;;;;;;;5.15;4.38;;;;;;;21.65;56.06;99316.59;5058435;28;20045;-82
2022/09/29 06:09:07;;;;;;;7.22;5.18;;;;;;;21.65;56.14;99313.88;5058003;28;20052;-81
2022/09/29 06:11:34;;;;;;;6.68;4.85;;;;;;;21.64;56.13;99325.69;5057968;28;20056;-82
2022/09/29 06:14:02;;;;;;;6.35;4.63;;;;;;;21.64;55.99;99330.25;5057871;28;20045;-82
2022/09/29 06:16:31;;;;;;;6.30;4.72;;;;;;;21.65;55.98;99332.75;5058241;28;20052;-82
2022/09/29 06:19:00;;;;;;;5.93;4.60;;;;;;;21.63;56.15;99321.34;5047302;28;20385;-81
2022/09/29 06:21:29;;;;;;;5.40;4.63;;;;;;;21.64;56.18;99324.84;5038966;28;20049;-81
2022/09/29 06:23:57;;;;;;;5.43;4.25;;;;;;;21.63;56.15;99334.81;5036760;28;20049;-82
2022/09/29 06:26:25;;;;;;;5.03;4.43;;;;;;;21.64;56.17;99328.38;5037071;28;20056;-82
2022/09/29 06:28:54;;;;;;;6.97;4.75;;;;;;;21.64;56.06;99330.25;5045892;28;20052;-82
2022/09/29 06:31:24;;;;;;;4.97;4.40;;;;;;;21.65;56.19;99326.53;5056626;28;20053;-82
2022/09/29 06:33:57;;;;;;;6.40;4.32;;;;;;;21.63;56.05;99318.63;5058167;28;20052;-81
2022/09/29 06:39:19;;;;;;;6.47;4.72;;;;;;;21.63;56.16;99307.00;5057509;28;20045;-80
2022/09/29 06:41:55;;;;;;;6.18;4.72;;;;;;;21.63;56.09;99302.47;5056470;28;20045;-81
2022/09/29 06:44:25;;;;;;;6.65;4.88;;;;;;;21.63;56.14;99291.72;5056962;28;20385;-79
2022/09/29 06:46:53;;;;;;;6.05;5.45;;;;;;;21.64;56.21;99289.84;5057364;28;20048;-81
2022/09/29 06:49:22;;;;;;;5.95;5.22;;;;;;;21.64;56.23;99293.38;5039644;28;20040;-80
2022/09/29 06:51:50;;;;;;;6.78;5.38;;;;;;;21.63;56.36;99302.47;5055585;28;20053;-80
2022/09/29 06:54:20;;;;;;;5.45;4.85;;;;;;;21.63;56.32;99305.19;5057035;28;20049;-79
2022/09/29 06:56:51;;;;;;;5.75;4.60;;;;;;;21.63;56.23;99310.56;5056608;28;20049;-80
2022/09/29 06:59:18;;;;;;;6.50;4.95;;;;;;;21.65;56.32;99315.75;5057065;28;20048;-80
2022/09/29 07:01:49;;;;;;;5.53;4.82;;;;;;;21.63;56.34;99313.25;5055783;28;20503;-80
2022/09/29 07:04:19;;;;;;;7.20;4.80;;;;;;;21.63;56.39;99329.41;5056941;28;20053;-77
2022/09/29 07:06:47;;;;;;;5.25;4.47;;;;;;;21.65;56.51;99315.75;5055627;28;20419;-79
2022/09/29 07:09:15;;;;;;;6.72;4.95;;;;;;;21.64;56.51;99314.09;5056227;28;20045;-80
2022/09/29 07:11:48;;;;;;;5.93;4.55;;;;;;;21.65;56.53;99307.66;5056571;28;20049;-80
2022/09/29 07:14:18;;;;;;;8.75;4.05;;;;;;;21.65;56.48;99313.06;5056668;28;20400;-79
2022/09/29 07:16:48;;;;;;;8.55;4.82;;;;;;;21.66;56.53;99329.03;5054796;28;20056;-78
2022/09/29 07:19:16;;;;;;;8.13;5.43;;;;;;;21.67;56.58;99321.78;5051905;28;20481;-78
2022/09/29 07:21:48;;;;;;;9.02;5.30;;;;;;;21.68;56.49;99313.53;5040834;28;20392;-79
2022/09/29 07:24:16;;;;;;;10.02;4.97;;;;;;;21.69;56.54;99314.38;5034756;28;20076;-79
2022/09/29 07:26:44;;;;;;;9.10;4.90;;;;;;;21.68;56.61;99316.22;5036030;28;20053;-79
2022/09/29 07:29:12;;;;;;;9.57;5.35;;;;;;;21.68;56.55;99316.22;5035031;28;20042;-78
2022/09/29 07:31:44;;;;;;;7.85;5.35;;;;;;;21.68;56.45;99318.09;5034922;28;20067;-77
2022/09/29 07:34:19;;;;;;;6.15;5.25;;;;;;;21.68;56.47;99327.00;5035544;28;20045;-77
2022/09/29 07:36:47;;;;;;;9.18;5.40;;;;;;;21.68;56.52;99320.78;5034713;28;20053;-78
2022/09/29 07:39:14;;;;;;;10.18;5.15;;;;;;;21.67;56.56;99333.41;5034784;28;20046;-78
2022/09/29 07:41:41;;;;;;;7.38;5.00;;;;;;;21.66;56.49;99342.50;5035587;28;20068;-78
2022/09/29 07:44:09;;;;;;;8.30;4.57;;;;;;;21.68;56.61;99340.47;5039944;28;20044;-78
2022/09/29 07:46:36;;;;;;;5.90;4.18;;;;;;;21.67;56.67;99341.50;5055241;28;20040;-79
2022/09/29 07:49:03;;;;;;;8.25;5.30;;;;;;;21.69;56.59;99344.81;5055543;28;20404;-78
2022/09/29 07:51:31;;;;;;;6.68;4.82;;;;;;;21.69;56.80;99346.69;5054685;28;20041;-80
2022/09/29 07:54:03;;;;;;;8.82;5.38;;;;;;;21.69;56.92;99349.38;5054762;28;20385;-78
2022/09/29 07:56:31;;;;;;;10.60;9.35;;;;;;;21.70;56.61;99346.50;5054984;28;20045;-79
2022/09/29 07:59:01;;;;;;;13.25;9.43;;;;;;;21.66;56.74;99330.88;5055814;28;20037;-79
2022/09/29 08:01:28;;;;;;;14.35;9.30;;;;;;;21.65;56.79;99343.50;5055364;28;20045;-79
2022/09/29 08:03:56;;;;;;;9.38;6.57;;;;;;;21.66;56.87;99337.09;5055346;28;20052;-79
2022/09/29 08:06:25;;;;;;;8.07;6.30;;;;;;;21.67;56.97;99346.88;5055524;28;20041;-80
2022/09/29 08:08:53;;;;;;;16.50;9.95;;;;;;;21.68;56.87;99345.84;5054707;28;20503;-78
2022/09/29 08:11:33;;;;;;;11.35;10.25;;;;;;;21.67;57.17;99346.00;5054886;28;20052;-79
2022/09/29 08:14:01;;;;;;;10.20;7.90;;;;;;;21.66;57.19;99355.13;5055127;28;20044;-79
2022/09/29 08:16:28;;;;;;;10.45;7.50;;;;;;;21.67;57.20;99352.25;5054539;28;20416;-79
2022/09/29 08:18:56;;;;;;;11.23;7.63;;;;;;;21.69;57.15;99360.97;5053573;28;20116;-80
2022/09/29 08:21:24;;;;;;;7.25;5.70;;;;;;;21.71;56.96;99371.56;5040667;28;20037;-79
2022/09/29 08:23:51;;;;;;;7.20;5.55;;;;;;;21.72;57.42;99370.56;5034127;28;20049;-80
2022/09/29 08:26:21;;;;;;;8.48;5.78;;;;;;;21.73;57.24;99377.63;5034565;28;20045;-79
2022/09/29 08:29:06;;;;;;;9.10;7.63;;;;;;;21.75;57.50;99380.13;5037256;28;20037;-80
2022/09/29 08:31:38;;;;;;;10.23;7.65;;;;;;;21.73;57.71;99377.63;5054663;28;20071;-79
2022/09/29 08:34:06;;;;;;;9.52;7.47;;;;;;;21.73;57.58;99375.75;5054703;28;20045;-79
2022/09/29 08:36:35;;;;;;;12.98;9.68;;;;;;;21.72;57.65;99371.41;5054431;28;20045;-80
2022/09/29 08:39:03;;;;;;;12.27;10.30;;;;;;;21.71;57.97;99375.13;5054564;28;20045;-79
2022/09/29 08:41:32;;;;;;;15.57;8.27;;;;;;;21.70;57.96;99389.59;5054394;28;20049;-79
2022/09/29 08:44:05;;;;;;;11.80;7.35;;;;;;;21.71;57.87;99388.59;5054609;28;20045;-79
2022/09/29 08:46:41;;;;;;;12.32;8.95;;;;;;;21.69;58.04;99387.09;5054014;28;20045;-79
2022/09/29 08:49:36;;;;;;;16.27;10.95;;;;;;;21.70;58.01;99386.06;5054335;28;20400;-79
2022/09/29 08:52:18;;;;;;;13.80;10.55;;;;;;;21.69;58.22;99379.00;5035813;28;20061;-80
2022/09/29 08:54:49;;;;;;;13.98;10.00;;;;;;;21.66;58.40;99385.59;5034644;28;20164;-80
2022/09/29 08:57:19;;;;;;;11.00;9.30;;;;;;;21.67;58.39;99375.63;5033998;28;20045;-79
2022/09/29 08:59:51;;;;;;;11.60;9.75;;;;;;;21.66;58.48;99380.19;5034788;28;20049;-80
2022/09/29 09:02:26;;;;;;;14.80;10.52;;;;;;;21.66;58.69;99379.34;5034144;28;20049;-79
2022/09/29 09:05:06;;;;;;;14.95;10.82;;;;;;;21.65;58.94;99380.38;5046359;28;20056;-79
2022/09/29 09:07:50;;;;;;;9.57;8.57;;;;;;;21.64;58.69;99379.56;5053670;28;20052;-80
2022/09/29 09:10:30;;;;;;;9.70;8.70;;;;;;;21.64;58.58;99392.19;5053940;28;20052;-79
2022/09/29 09:13:30;;;;;;;11.43;8.55;;;;;;;21.64;58.60;99384.94;5053653;28;20051;-79
2022/09/29 09:16:27;;;;;;;14.45;10.27;;;;;;;21.66;58.86;99380.19;5053135;28;20048;-79
2022/09/29 09:19:19;;;;;;;11.65;9.82;;;;;;;21.65;58.79;99386.59;5053888;28;20049;-79
2022/09/29 09:22:14;;;;;;;11.57;9.80;;;;;;;21.63;59.03;99396.75;5044937;28;20033;-79
2022/09/29 09:24:48;;;;;;;11.10;9.90;;;;;;;21.63;59.15;99385.09;5032106;28;20057;-79
2022/09/29 09:27:22;;;;;;;13.95;10.20;;;;;;;21.63;59.11;99388.66;5032571;28;20049;-79
2022/09/29 09:30:01;;;;;;;12.38;9.77;;;;;;;21.63;59.33;99387.78;5033466;28;20056;-79
2022/09/29 09:32:34;;;;;;;10.45;8.95;;;;;;;21.62;59.33;99389.66;5033445;28;20056;-79
2022/09/29 09:35:15;;;;;;;12.25;9.93;;;;;;;21.62;59.43;99386.97;5033391;28;20045;-79
2022/09/29 09:37:52;;;;;;;14.63;9.57;;;;;;;21.62;59.26;99386.13;5033449;28;20050;-79
2022/09/29 09:40:26;;;;;;;14.45;10.23;;;;;;;21.63;59.37;99393.19;5033541;28;20047;-79
2022/09/29 09:42:58;;;;;;;14.55;11.18;;;;;;;21.62;59.30;99386.97;5034288;28;20058;-78
2022/09/29 09:45:30;;;;;;;12.00;9.13;;;;;;;21.61;59.30;99379.06;5047254;28;20057;-79
2022/09/29 09:48:09;;;;;;;14.57;9.43;;;;;;;21.62;59.38;99383.44;5053986;28;20041;-78
2022/09/29 09:50:41;;;;;;;11.48;8.43;;;;;;;21.62;59.17;99384.28;5053390;28;20056;-77
2022/09/29 09:53:52;;;;;;;12.27;8.57;;;;;;;21.62;59.13;99365.41;5053380;28;20052;-76
2022/09/29 09:56:55;;;;;;;10.40;8.20;;;;;;;21.63;59.22;99377.03;5040641;28;20053;-79
2022/09/29 09:59:22;;;;;;;9.10;8.20;;;;;;;21.63;59.42;99383.28;5051583;28;20064;-79
2022/09/29 10:01:50;;;;;;;11.45;7.93;;;;;;;21.63;59.47;99374.31;5033958;28;20061;-79
2022/09/29 10:04:18;;;;;;;12.38;8.60;;;;;;;21.63;59.53;99368.94;5051875;28;20060;-80
2022/09/29 10:06:45;;;;;;;13.75;9.60;;;;;;;21.62;59.59;99370.81;5052516;28;20049;-79
2022/09/29 10:09:14;;;;;;;10.18;8.20;;;;;;;21.63;59.51;99371.63;5051152;28;20065;-79
2022/09/29 10:11:43;;;;;;;10.70;7.53;;;;;;;21.63;59.54;99369.81;5050961;28;20508;-79
2022/09/29 10:14:22;;;;;;;10.88;7.35;;;;;;;21.65;59.43;99369.63;5052072;28;20049;-79
2022/09/29 10:17:05;;;;;;;12.75;9.40;;;;;;;21.65;59.34;99364.22;5052222;28;20052;-79
2022/09/29 10:19:53;;;;;;;;;;;;;;;21.64;59.29;99355.31;5052351;28;20049;-80
2022/09/29 10:22:24;;;;;;;10.68;8.90;;;;;;;21.65;59.40;99348.91;5046361;28;19928;-80
2022/09/29 10:25:15;;;;;;;13.85;10.50;;;;;;;21.63;59.39;99345.56;5031549;28;20585;-79
2022/09/29 10:27:47;;;;;;;12.85;9.65;;;;;;;21.64;59.47;99346.41;5051446;28;20056;-78
2022/09/29 10:30:32;;;;;;;13.73;11.27;;;;;;;21.64;59.84;99336.47;5051401;28;20048;-78
2022/09/29 10:33:02;;;;;;;11.40;9.65;;;;;;;21.63;59.75;99334.81;5051043;28;20064;-79
2022/09/29 10:35:37;;;;;;;14.45;9.35;;;;;;;21.64;59.77;99341.84;5052864;28;20404;-79
2022/09/29 10:38:14;;;;;;;11.10;8.65;;;;;;;21.64;59.81;99341.84;5053591;28;20053;-79
2022/09/29 10:41:05;;;;;;;10.13;7.95;;;;;;;21.65;59.54;99353.44;5053081;28;20063;-78
2022/09/29 10:43:33;;;;;;;11.65;8.50;;;;;;;21.66;59.25;99334.41;5056150;28;20041;-78
2022/09/29 10:46:04;;;;;;;7.70;6.90;;;;;;;21.67;59.21;99332.53;5057115;28;20060;-78
2022/09/29 10:48:32;;;;;;;9.50;6.53;;;;;;;21.68;59.12;99336.94;5056493;28;20052;-77
2022/09/29 10:51:03;;;;;;;7.68;6.15;;;;;;;21.68;59.30;99329.69;5055339;28;20044;-78
2022/09/29 10:53:41;;;;;;;8.93;6.55;;;;;;;21.70;59.30;99332.19;5056773;28;20040;-78
2022/09/29 10:56:23;;;;;;;9.65;7.22;;;;;;;21.70;59.23;99322.25;5056440;28;20049;-77
2022/09/29 10:58:54;;;;;;;10.00;6.78;;;;;;;21.70;59.10;99316.84;5056517;28;20052;-80
2022/09/29 11:01:44;;;;;;;8.52;5.93;;;;;;;21.70;59.03;99318.72;5055380;28;20048;-79
2022/09/29 11:04:25;;;;;;;11.50;7.30;;;;;;;21.72;59.32;99328.31;5056309;28;20392;-79
2022/09/29 11:06:53;;;;;;;7.18;6.20;;;;;;;21.72;59.13;99328.31;5056526;28;20049;-80
2022/09/29 11:09:29;;;;;;;8.82;6.30;;;;;;;21.72;58.95;99335.56;5056718;28;20499;-79
2022/09/29 11:11:58;;;;;;;10.95;6.40;;;;;;;21.73;59.00;99346.13;5056161;28;20045;-78
2022/09/29 11:14:36;;;;;;;8.38;5.95;;;;;;;21.73;58.85;99340.75;5056163;28;20041;-79
2022/09/29 11:17:22;;;;;;;8.57;6.32;;;;;;;21.71;57.76;99345.50;5056615;28;20056;-79
2022/09/29 11:19:52;;;;;;;9.80;5.70;;;;;;;21.69;56.23;99334.06;5056076;28;20049;-79
2022/09/29 11:22:57;;;;;;;9.20;5.18;;;;;;;21.68;55.42;99332.38;5055834;28;20461;-79
2022/09/29 11:25:37;;;;;;;9.15;4.40;;;;;;;21.63;54.74;99326.72;5035107;28;20034;-82
2022/09/29 11:28:06;;;;;;;4.68;3.60;;;;;;;21.62;53.84;99316.09;5036221;28;20508;-79
2022/09/29 11:30:47;;;;;;;4.50;3.05;;;;;;;21.59;53.50;99321.84;5035505;28;20508;-79
2022/09/29 11:33:54;;;;;;;5.82;2.90;;;;;;;21.58;52.70;99322.88;5035797;28;20116;-79
2022/09/29 11:36:59;;;;;;;5.88;2.80;;;;;;;21.56;52.36;99316.84;5036002;28;20426;-79
2022/09/29 11:39:48;;;;;;;11.60;3.20;;;;;;;21.56;52.39;99319.56;5035361;28;20053;-77
2022/09/29 11:42:45;;;;;;;6.10;3.03;;;;;;;21.56;53.23;99328.47;5035352;28;20045;-78
2022/09/29 11:45:17;;;;;;;4.97;2.88;;;;;;;21.58;53.12;99342.56;5038151;28;20064;-79
2022/09/29 11:48:27;;;;;;;5.78;2.75;;;;;;;21.58;52.22;99329.09;5037074;28;20053;-80
2022/09/29 11:51:15;;;;;;;5.25;2.67;;;;;;;21.58;51.23;99326.41;5010526;28;20409;-78
2022/09/29 11:53:43;;;;;;;9.43;2.53;;;;;;;21.58;50.66;99326.41;5037511;28;20431;-79
2022/09/29 11:56:34;;;;;;;3.83;2.20;;;;;;;21.58;50.97;99337.19;5053879;28;20059;-76
2022/09/29 11:59:23;;;;;;;5.00;2.40;;;;;;;21.60;51.04;99329.78;5052735;28;20539;-76
2022/09/29 12:02:01;;;;;;;6.80;2.95;;;;;;;21.60;51.32;99326.25;5053386;28;20420;-80